createdAt,value
2018-08-10T00:00:44.627Z,21.27
2018-08-10T00:01:54.528Z,21.25
2018-08-10T00:03:04.707Z,21.34
2018-08-10T00:04:14.877Z,21.33
2018-08-10T00:05:25.088Z,21.28
2018-08-10T00:06:35.209Z,21.33
2018-08-10T00:07:45.333Z,21.34
2018-08-10T00:08:55.656Z,21.31
2018-08-10T00:10:05.893Z,21.25
2018-08-10T00:11:16.011Z,21.35
2018-08-10T00:12:26.137Z,21.34
2018-08-10T00:13:36.322Z,21.31
2018-08-10T00:14:46.567Z,21.34
2018-08-10T00:15:56.804Z,21.38
2018-08-10T00:17:06.950Z,21.4
2018-08-10T00:18:17.209Z,21.48
2018-08-10T00:19:27.458Z,21.4
2018-08-10T00:20:37.638Z,21.41
2018-08-10T00:21:47.855Z,21.41
2018-08-10T00:22:57.728Z,21.33
2018-08-10T00:24:07.623Z,21.38
2018-08-10T00:25:17.744Z,21.35
2018-08-10T00:26:27.884Z,21.22
2018-08-10T00:27:38.019Z,21.23
2018-08-10T00:28:48.225Z,21.16
2018-08-10T00:29:58.468Z,21.08
2018-08-10T00:31:08.634Z,21.13
2018-08-10T00:32:18.789Z,21.08
2018-08-10T00:33:29.129Z,21.2
2018-08-10T00:34:39.287Z,21.13
2018-08-10T00:35:49.457Z,21.09
2018-08-10T00:36:59.611Z,21.09
2018-08-10T00:38:09.772Z,21.1
2018-08-10T00:39:19.897Z,21.08
2018-08-10T00:40:31.001Z,21.06
2018-08-10T00:41:41.146Z,21.09
2018-08-10T00:42:51.387Z,20.96
2018-08-10T00:44:01.283Z,21.01
2018-08-10T00:45:11.435Z,21.01
2018-08-10T00:46:21.596Z,21
2018-08-10T00:47:31.788Z,21.04
2018-08-10T00:48:42.005Z,20.97
2018-08-10T00:49:52.206Z,21.01
2018-08-10T00:51:02.384Z,21.1
2018-08-10T00:52:12.656Z,21.06
2018-08-10T00:53:22.525Z,21.01
2018-08-10T00:54:32.417Z,21.04
2018-08-10T00:55:42.534Z,21.13
2018-08-10T00:56:52.711Z,21.13
2018-08-10T00:58:03.201Z,21.13
2018-08-10T00:59:13.384Z,21.06
2018-08-10T01:00:23.723Z,21.12
2018-08-10T01:01:33.962Z,21.09
2018-08-10T01:02:44.154Z,21.13
2018-08-10T01:03:54.392Z,21.09
2018-08-10T01:05:04.511Z,21.03
2018-08-10T01:06:14.459Z,21.01
2018-08-10T01:07:24.670Z,20.97
2018-08-10T01:08:34.864Z,20.91
2018-08-10T01:09:45.047Z,20.78
2018-08-10T01:10:55.292Z,20.82
2018-08-10T01:12:05.446Z,20.85
2018-08-10T01:13:15.476Z,20.82
2018-08-10T01:14:25.452Z,20.82
2018-08-10T01:15:35.802Z,20.86
2018-08-10T01:16:45.936Z,20.85
2018-08-10T01:17:56.091Z,20.91
2018-08-10T01:19:06.050Z,20.91
2018-08-10T01:20:16.504Z,20.88
2018-08-10T01:21:26.389Z,21
2018-08-10T01:22:36.308Z,20.98
2018-08-10T01:23:46.456Z,20.93
2018-08-10T01:24:56.610Z,20.96
2018-08-10T01:26:06.737Z,20.93
2018-08-10T01:27:16.873Z,20.93
2018-08-10T01:28:27.267Z,20.9
2018-08-10T01:29:37.854Z,20.9
2018-08-10T01:30:48.033Z,20.98
2018-08-10T01:31:58.177Z,21
2018-08-10T01:33:08.365Z,21
2018-08-10T01:34:18.476Z,21.06
2018-08-10T01:35:28.640Z,21.04
2018-08-10T01:36:38.759Z,21.13
2018-08-10T01:37:48.644Z,21.1
2018-08-10T01:38:58.767Z,21.1
2018-08-10T01:40:08.919Z,21.09
2018-08-10T01:41:19.086Z,21.12
2018-08-10T01:42:29.317Z,21.12
2018-08-10T01:43:39.179Z,21.09
2018-08-10T01:44:49.312Z,21.06
2018-08-10T01:45:59.517Z,21.13
2018-08-10T01:47:09.692Z,20.98
2018-08-10T01:48:20.534Z,21
2018-08-10T01:49:30.764Z,20.98
2018-08-10T01:50:40.945Z,20.93
2018-08-10T01:51:51.136Z,20.91
2018-08-10T01:53:01.282Z,20.88
2018-08-10T01:54:11.085Z,20.86
2018-08-10T01:55:21.231Z,20.88
2018-08-10T01:56:31.421Z,20.85
2018-08-10T01:57:41.607Z,20.88
2018-08-10T01:58:51.843Z,20.91
2018-08-10T02:00:02.056Z,20.93
2018-08-10T02:01:12.351Z,20.94
2018-08-10T02:02:22.495Z,20.91
2018-08-10T02:03:32.631Z,20.9
2018-08-10T02:04:42.500Z,20.94
2018-08-10T02:05:52.700Z,20.86
2018-08-10T02:07:03.067Z,20.86
2018-08-10T02:08:13.259Z,20.85
2018-08-10T02:09:23.435Z,20.79
2018-08-10T02:10:33.658Z,20.64
2018-08-10T02:11:43.923Z,20.6
2018-08-10T02:12:54.060Z,20.51
2018-08-10T02:14:04.303Z,20.51
2018-08-10T02:15:14.540Z,20.51
2018-08-10T02:16:24.841Z,20.57
2018-08-10T02:17:35.049Z,20.63
2018-08-10T02:18:45.182Z,20.71
2018-08-10T02:19:55.394Z,20.73
2018-08-10T02:21:05.645Z,20.79
2018-08-10T02:22:15.775Z,20.86
2018-08-10T02:23:26.052Z,20.85
2018-08-10T02:24:36.384Z,20.91
2018-08-10T02:25:46.668Z,20.79
2018-08-10T02:26:56.812Z,20.75
2018-08-10T02:28:07.038Z,20.68
2018-08-10T02:29:17.275Z,20.57
2018-08-10T02:30:27.479Z,20.53
2018-08-10T02:31:37.615Z,20.42
2018-08-10T02:32:48.047Z,20.48
2018-08-10T02:33:58.190Z,20.53
2018-08-10T02:35:08.096Z,20.41
2018-08-10T02:36:18.221Z,20.39
2018-08-10T02:37:28.015Z,20.41
2018-08-10T02:38:37.818Z,20.38
2018-08-10T02:39:47.948Z,20.41
2018-08-10T02:40:58.130Z,20.3
2018-08-10T02:42:08.355Z,20.41
2018-08-10T02:43:18.480Z,20.36
2018-08-10T02:44:28.638Z,20.43
2018-08-10T02:45:38.777Z,20.49
2018-08-10T02:46:48.906Z,20.56
2018-08-10T02:47:58.866Z,20.53
2018-08-10T02:49:09.168Z,20.64
2018-08-10T02:50:19.359Z,20.71
2018-08-10T02:51:29.505Z,20.73
2018-08-10T02:52:39.759Z,20.78
2018-08-10T02:53:49.909Z,20.85
2018-08-10T02:55:00.159Z,20.9
2018-08-10T02:56:10.017Z,20.94
2018-08-10T02:57:20.164Z,20.9
2018-08-10T02:58:30.038Z,20.98
2018-08-10T02:59:40.163Z,20.94
2018-08-10T03:00:50.295Z,20.9
2018-08-10T03:02:00.532Z,20.73
2018-08-10T03:03:10.801Z,20.76
2018-08-10T03:04:21.016Z,20.79
2018-08-10T03:05:31.441Z,20.82
2018-08-10T03:06:41.577Z,20.79
2018-08-10T03:07:51.745Z,20.88
2018-08-10T03:09:01.983Z,20.83
2018-08-10T03:10:12.194Z,20.75
2018-08-10T03:11:22.063Z,20.82
2018-08-10T03:12:32.220Z,20.82
2018-08-10T03:13:42.366Z,20.82
2018-08-10T03:14:52.509Z,20.82
2018-08-10T03:16:02.659Z,20.76
2018-08-10T03:17:12.801Z,20.82
2018-08-10T03:18:22.955Z,20.78
2018-08-10T03:19:33.159Z,20.81
2018-08-10T03:20:43.287Z,20.79
2018-08-10T03:21:53.425Z,20.71
2018-08-10T03:23:03.684Z,20.6
2018-08-10T03:24:13.562Z,20.53
2018-08-10T03:25:23.337Z,20.49
2018-08-10T03:26:33.531Z,20.42
2018-08-10T03:27:43.448Z,20.31
2018-08-10T03:28:53.700Z,20.27
2018-08-10T03:30:03.946Z,20.23
2018-08-10T03:31:14.094Z,20.19
2018-08-10T03:32:24.321Z,20.23
2018-08-10T03:33:34.538Z,20.27
2018-08-10T03:34:44.768Z,20.11
2018-08-10T03:35:54.734Z,20.14
2018-08-10T03:37:04.860Z,20.05
2018-08-10T03:38:14.995Z,20.04
2018-08-10T03:39:25.152Z,19.95
2018-08-10T03:40:35.341Z,19.93
2018-08-10T03:41:45.617Z,19.88
2018-08-10T03:42:55.914Z,19.89
2018-08-10T03:44:06.057Z,19.83
2018-08-10T03:45:16.255Z,19.82
2018-08-10T03:46:26.428Z,19.85
2018-08-10T03:47:36.643Z,19.73
2018-08-10T03:48:46.810Z,19.68
2018-08-10T03:49:57.300Z,19.71
2018-08-10T03:51:07.503Z,19.6
2018-08-10T03:52:17.664Z,19.73
2018-08-10T03:53:27.796Z,19.67
2018-08-10T03:54:38.065Z,19.65
2018-08-10T03:55:48.352Z,19.6
2018-08-10T03:56:58.484Z,19.52
2018-08-10T03:58:08.194Z,19.49
2018-08-10T03:59:18.075Z,19.63
2018-08-10T04:00:28.237Z,19.53
2018-08-10T04:01:38.106Z,19.61
2018-08-10T04:02:48.029Z,19.55
2018-08-10T04:03:57.983Z,19.46
2018-08-10T04:05:07.881Z,19.55
2018-08-10T04:06:18.044Z,19.53
2018-08-10T04:07:28.163Z,19.61
2018-08-10T04:08:38.282Z,19.56
2018-08-10T04:09:48.582Z,19.6
2018-08-10T04:10:59.815Z,19.49
2018-08-10T04:12:09.971Z,19.56
2018-08-10T04:13:19.840Z,19.55
2018-08-10T04:14:30.001Z,19.64
2018-08-10T04:15:40.189Z,19.58
2018-08-10T04:16:50.331Z,19.63
2018-08-10T04:18:00.535Z,19.68
2018-08-10T04:19:10.407Z,19.7
2018-08-10T04:20:20.580Z,19.6
2018-08-10T04:21:30.802Z,19.58
2018-08-10T04:22:41.008Z,19.46
2018-08-10T04:23:51.273Z,19.49
2018-08-10T04:25:01.399Z,19.56
2018-08-10T04:26:11.616Z,19.5
2018-08-10T04:27:21.810Z,19.49
2018-08-10T04:28:32.007Z,19.56
2018-08-10T04:29:42.436Z,19.56
2018-08-10T04:30:52.273Z,19.45
2018-08-10T04:32:02.424Z,19.46
2018-08-10T04:33:12.599Z,19.6
2018-08-10T04:34:22.731Z,19.5
2018-08-10T04:35:32.910Z,19.55
2018-08-10T04:36:42.691Z,19.6
2018-08-10T04:37:52.894Z,19.53
2018-08-10T04:39:03.193Z,19.6
2018-08-10T04:40:13.363Z,19.6
2018-08-10T04:41:23.551Z,19.53
2018-08-10T04:42:33.755Z,19.49
2018-08-10T04:43:43.930Z,19.46
2018-08-10T04:44:53.777Z,19.42
2018-08-10T04:46:03.663Z,19.42
2018-08-10T04:47:13.795Z,19.39
2018-08-10T04:48:24.015Z,19.37
2018-08-10T04:49:33.536Z,19.35
2018-08-10T04:50:43.717Z,19.31
2018-08-10T04:51:54.140Z,19.4
2018-08-10T04:53:04.286Z,19.34
2018-08-10T04:54:14.570Z,19.39
2018-08-10T04:55:24.838Z,19.43
2018-08-10T04:56:35.478Z,19.39
2018-08-10T04:57:45.419Z,19.37
2018-08-10T04:58:55.543Z,19.35
2018-08-10T05:00:05.742Z,19.35
2018-08-10T05:01:15.871Z,19.37
2018-08-10T05:02:26.072Z,19.35
2018-08-10T05:03:36.312Z,19.39
2018-08-10T05:04:46.242Z,19.37
2018-08-10T05:05:56.148Z,19.4
2018-08-10T05:07:06.262Z,19.31
2018-08-10T05:08:16.413Z,19.4
2018-08-10T05:09:26.538Z,19.37
2018-08-10T05:10:37.153Z,19.4
2018-08-10T05:11:47.101Z,19.43
2018-08-10T05:12:56.977Z,19.35
2018-08-10T05:14:07.134Z,19.4
2018-08-10T05:15:17.169Z,19.34
2018-08-10T05:16:27.365Z,19.34
2018-08-10T05:17:37.546Z,19.31
2018-08-10T05:18:47.724Z,19.28
2018-08-10T05:19:57.583Z,19.28
2018-08-10T05:21:07.732Z,19.23
2018-08-10T05:22:18.866Z,19.31
2018-08-10T05:23:28.721Z,19.23
2018-08-10T05:24:38.854Z,19.31
2018-08-10T05:25:49.241Z,19.33
2018-08-10T05:26:59.499Z,19.35
2018-08-10T05:28:09.639Z,19.37
2018-08-10T05:29:19.779Z,19.37
2018-08-10T05:30:29.606Z,19.37
2018-08-10T05:31:39.741Z,19.33
2018-08-10T05:32:49.892Z,19.25
2018-08-10T05:34:00.118Z,19.27
2018-08-10T05:35:10.323Z,19.4
2018-08-10T05:36:20.676Z,19.34
2018-08-10T05:37:30.858Z,19.35
2018-08-10T05:38:41.205Z,19.39
2018-08-10T05:39:51.375Z,19.4
2018-08-10T05:41:01.714Z,19.4
2018-08-10T05:42:11.891Z,19.34
2018-08-10T05:43:21.658Z,19.34
2018-08-10T05:44:31.830Z,19.33
2018-08-10T05:45:41.991Z,19.39
2018-08-10T05:46:52.209Z,19.3
2018-08-10T05:48:02.524Z,19.25
2018-08-10T05:49:12.948Z,19.21
2018-08-10T05:50:23.121Z,19.25
2018-08-10T05:51:33.318Z,19.35
2018-08-10T05:52:43.622Z,19.27
2018-08-10T05:53:53.215Z,19.28
2018-08-10T05:55:03.344Z,19.37
2018-08-10T05:56:14.447Z,19.3
2018-08-10T05:57:24.663Z,19.31
2018-08-10T05:58:34.916Z,19.23
2018-08-10T05:59:45.051Z,19.23
2018-08-10T06:00:55.031Z,19.18
2018-08-10T06:02:05.163Z,19.19
2018-08-10T06:03:15.439Z,19.16
2018-08-10T06:04:25.625Z,19.19
2018-08-10T06:05:35.757Z,19.23
2018-08-10T06:06:45.996Z,19.19
2018-08-10T06:07:56.367Z,19.21
2018-08-10T06:09:06.490Z,19.16
2018-08-10T06:10:16.427Z,19.16
2018-08-10T06:11:26.545Z,19.13
2018-08-10T06:12:36.679Z,19.18
2018-08-10T06:13:46.839Z,19.19
2018-08-10T06:14:57.081Z,19.09
2018-08-10T06:16:08.636Z,19.15
2018-08-10T06:17:18.496Z,19.18
2018-08-10T06:18:28.632Z,19.05
2018-08-10T06:19:39.052Z,18.94
2018-08-10T06:20:49.353Z,18.95
2018-08-10T06:21:59.221Z,19
2018-08-10T06:23:09.380Z,19.06
2018-08-10T06:24:19.620Z,19.09
2018-08-10T06:25:29.903Z,19.21
2018-08-10T06:26:39.848Z,19.15
2018-08-10T06:27:50.355Z,19.1
2018-08-10T06:29:00.951Z,19.15
2018-08-10T06:30:10.821Z,19.18
2018-08-10T06:31:20.701Z,19.23
2018-08-10T06:32:30.870Z,19.27
2018-08-10T06:33:41.072Z,19.25
2018-08-10T06:34:51.439Z,19.25
2018-08-10T06:36:01.324Z,19.4
2018-08-10T06:37:11.210Z,19.4
2018-08-10T06:38:21.344Z,19.37
2018-08-10T06:39:31.472Z,19.35
2018-08-10T06:40:41.612Z,19.31
2018-08-10T06:41:51.605Z,19.37
2018-08-10T06:43:01.819Z,19.35
2018-08-10T06:44:12.112Z,19.34
2018-08-10T06:45:23.132Z,19.34
2018-08-10T06:46:33.432Z,19.34
2018-08-10T06:47:43.609Z,19.27
2018-08-10T06:48:53.862Z,19.34
2018-08-10T06:50:04.109Z,19.31
2018-08-10T06:51:14.896Z,19.39
2018-08-10T06:52:25.302Z,19.43
2018-08-10T06:53:35.188Z,19.49
2018-08-10T06:54:46.418Z,19.49
2018-08-10T06:55:57.205Z,19.52
2018-08-10T06:57:07.709Z,19.53
2018-08-10T06:58:18.079Z,19.48
2018-08-10T06:59:28.255Z,19.53
2018-08-10T07:00:38.837Z,19.48
2018-08-10T07:01:49.321Z,19.45
2018-08-10T07:02:59.266Z,19.43
2018-08-10T07:04:09.498Z,19.37
2018-08-10T07:05:19.627Z,19.45
2018-08-10T07:06:29.497Z,19.49
2018-08-10T07:07:40.197Z,19.55
2018-08-10T07:08:50.730Z,19.55
2018-08-10T07:10:00.849Z,19.63
2018-08-10T07:11:11.075Z,19.68
2018-08-10T07:12:21.257Z,19.85
2018-08-10T07:13:31.829Z,19.85
2018-08-10T07:14:42.458Z,19.93
2018-08-10T07:15:52.226Z,19.92
2018-08-10T07:17:02.355Z,19.98
2018-08-10T07:18:12.507Z,19.97
2018-08-10T07:19:22.641Z,19.97
2018-08-10T07:20:32.773Z,19.98
2018-08-10T07:21:43.048Z,20
2018-08-10T07:22:53.299Z,20.03
2018-08-10T07:24:03.444Z,20.11
2018-08-10T07:25:13.403Z,20.12
2018-08-10T07:26:23.531Z,20.12
2018-08-10T07:27:33.657Z,20.12
2018-08-10T07:28:43.777Z,20.17
2018-08-10T07:29:54.066Z,20.21
2018-08-10T07:31:04.287Z,20.34
2018-08-10T07:32:14.469Z,20.24
2018-08-10T07:33:24.696Z,20.27
2018-08-10T07:34:35.056Z,20.34
2018-08-10T07:35:45.187Z,20.41
2018-08-10T07:36:55.382Z,20.35
2018-08-10T07:38:05.511Z,20.35
2018-08-10T07:39:15.635Z,20.28
2018-08-10T07:40:25.760Z,20.3
2018-08-10T07:41:36.239Z,20.2
2018-08-10T07:42:46.464Z,20.26
2018-08-10T07:43:56.414Z,20.3
2018-08-10T07:45:06.545Z,20.26
2018-08-10T07:46:16.712Z,20.38
2018-08-10T07:47:26.956Z,20.34
2018-08-10T07:48:37.198Z,20.45
2018-08-10T07:49:47.378Z,20.48
2018-08-10T07:50:57.485Z,20.49
2018-08-10T07:52:07.500Z,20.41
2018-08-10T07:53:17.753Z,20.43
2018-08-10T07:54:27.978Z,20.49
2018-08-10T07:55:38.139Z,20.63
2018-08-10T07:56:48.284Z,20.71
2018-08-10T07:57:58.447Z,20.67
2018-08-10T07:59:08.693Z,20.68
2018-08-10T08:00:19.109Z,20.68
2018-08-10T08:01:30.226Z,20.73
2018-08-10T08:02:40.489Z,20.76
2018-08-10T08:03:50.664Z,20.85
2018-08-10T08:05:00.837Z,20.79
2018-08-10T08:06:11.129Z,20.85
2018-08-10T08:07:21.277Z,20.83
2018-08-10T08:08:31.444Z,20.82
2018-08-10T08:09:41.339Z,20.81
2018-08-10T08:10:51.491Z,20.9
2018-08-10T08:12:01.401Z,21.01
2018-08-10T08:13:11.527Z,20.97
2018-08-10T08:14:21.674Z,21
2018-08-10T08:15:31.557Z,20.96
2018-08-10T08:16:41.700Z,20.96
2018-08-10T08:17:51.904Z,21.08
2018-08-10T08:19:01.969Z,21.08
2018-08-10T08:20:12.244Z,21.06
2018-08-10T08:21:22.119Z,21.13
2018-08-10T08:22:32.967Z,21.04
2018-08-10T08:23:43.114Z,21.16
2018-08-10T08:24:53.273Z,21.25
2018-08-10T08:26:02.916Z,21.31
2018-08-10T08:27:13.182Z,21.37
2018-08-10T08:28:23.533Z,21.56
2018-08-10T08:29:33.686Z,21.69
2018-08-10T08:30:44.807Z,21.91
2018-08-10T08:31:54.805Z,22.05
2018-08-10T08:33:05.306Z,22.21
2018-08-10T08:34:15.423Z,22.65
2018-08-10T08:35:25.310Z,23.2
2018-08-10T08:36:36.404Z,23.73
2018-08-10T08:37:46.534Z,24.02
2018-08-10T08:38:56.463Z,24.55
2018-08-10T08:40:06.586Z,24.48
2018-08-10T08:41:16.727Z,24.31
2018-08-10T08:42:27.086Z,24.01
2018-08-10T08:43:37.268Z,23.76
2018-08-10T08:44:47.515Z,23.64
2018-08-10T08:45:58.612Z,23.79
2018-08-10T08:47:09.581Z,24.09
2018-08-10T08:48:19.135Z,24.51
2018-08-10T08:49:29.282Z,24.76
2018-08-10T08:50:39.450Z,25.05
2018-08-10T08:51:49.717Z,25.32
2018-08-10T08:52:59.906Z,25.61
2018-08-10T08:54:10.307Z,25.64
2018-08-10T08:55:20.805Z,25.66
2018-08-10T08:56:30.957Z,25.52
2018-08-10T08:57:40.938Z,25.21
2018-08-10T08:58:52.053Z,25.21
2018-08-10T09:00:01.924Z,25.21
2018-08-10T09:01:12.315Z,25.19
2018-08-10T09:02:23.517Z,24.76
2018-08-10T09:03:33.651Z,24.39
2018-08-10T09:04:43.811Z,24.02
2018-08-10T09:05:53.948Z,23.69
2018-08-10T09:07:04.109Z,23.46
2018-08-10T09:08:14.250Z,23.18
2018-08-10T09:09:24.410Z,22.93
2018-08-10T09:10:34.061Z,22.76
2018-08-10T09:11:44.323Z,22.76
2018-08-10T09:12:54.205Z,23.11
2018-08-10T09:14:04.401Z,23.48
2018-08-10T09:15:14.563Z,23.76
2018-08-10T09:16:24.778Z,24.24
2018-08-10T09:17:35.260Z,24.73
2018-08-10T09:18:45.772Z,25.12
2018-08-10T09:19:55.909Z,25.25
2018-08-10T09:21:06.099Z,25.66
2018-08-10T09:22:16.337Z,26.24
2018-08-10T09:23:26.858Z,26.14
2018-08-10T09:24:36.829Z,25.84
2018-08-10T09:25:46.776Z,25.97
2018-08-10T09:26:57.059Z,26.33
2018-08-10T09:28:07.517Z,26.45
2018-08-10T09:29:17.924Z,26.64
2018-08-10T09:30:28.102Z,26.73
2018-08-10T09:31:38.259Z,26.99
2018-08-10T09:32:48.155Z,26.95
2018-08-10T09:33:58.321Z,26.92
2018-08-10T09:35:08.114Z,26.59
2018-08-10T09:36:18.255Z,26.46
2018-08-10T09:37:28.409Z,26.18
2018-08-10T09:38:38.820Z,25.77
2018-08-10T09:39:48.743Z,25.37
2018-08-10T09:40:58.634Z,25.42
2018-08-10T09:42:08.925Z,25.62
2018-08-10T09:43:19.469Z,25.44
2018-08-10T09:44:29.621Z,25.42
2018-08-10T09:45:39.839Z,25.18
2018-08-10T09:46:49.971Z,25.42
2018-08-10T09:48:00.255Z,25.36
2018-08-10T09:49:10.460Z,25.4
2018-08-10T09:50:20.690Z,25.28
2018-08-10T09:51:30.910Z,25.58
2018-08-10T09:52:41.104Z,25.99
2018-08-10T09:53:51.537Z,26.27
2018-08-10T09:55:01.692Z,26.61
2018-08-10T09:56:11.590Z,26.71
2018-08-10T09:57:21.735Z,26.88
2018-08-10T09:58:32.010Z,26.9
2018-08-10T09:59:42.468Z,26.98
2018-08-10T10:00:52.834Z,27.08
2018-08-10T10:02:02.740Z,27.26
2018-08-10T10:03:12.684Z,27.24
2018-08-10T10:04:22.865Z,27.03
2018-08-10T10:05:33.183Z,27.11
2018-08-10T10:06:43.463Z,26.96
2018-08-10T10:07:53.711Z,26.68
2018-08-10T10:09:04.112Z,26.67
2018-08-10T10:10:14.349Z,26.31
2018-08-10T10:11:24.506Z,26.15
2018-08-10T10:12:34.377Z,26.21
2018-08-10T10:13:44.251Z,26.43
2018-08-10T10:14:54.447Z,26.68
2018-08-10T10:16:04.696Z,27.04
2018-08-10T10:17:14.883Z,27.33
2018-08-10T10:18:26.105Z,27.49
2018-08-10T10:19:36.291Z,27.41
2018-08-10T10:20:46.507Z,27.46
2018-08-10T10:21:56.737Z,27.43
2018-08-10T10:23:06.965Z,27.53
2018-08-10T10:24:17.340Z,27.61
2018-08-10T10:25:27.269Z,27.8
2018-08-10T10:26:37.547Z,27.77
2018-08-10T10:27:47.746Z,27.71
2018-08-10T10:28:57.962Z,27.72
2018-08-10T10:30:08.261Z,27.82
2018-08-10T10:31:18.474Z,27.98
2018-08-10T10:32:28.696Z,28.08
2018-08-10T10:33:39.078Z,28.14
2018-08-10T10:34:49.277Z,28.14
2018-08-10T10:35:59.506Z,28.19
2018-08-10T10:37:09.668Z,28.23
2018-08-10T10:38:19.877Z,28.22
2018-08-10T10:39:30.056Z,28.45
2018-08-10T10:40:40.012Z,28.42
2018-08-10T10:41:50.157Z,28.44
2018-08-10T10:43:00.382Z,28.61
2018-08-10T10:44:10.588Z,28.56
2018-08-10T10:45:20.764Z,28.5
2018-08-10T10:46:30.937Z,28.38
2018-08-10T10:47:41.123Z,28.27
2018-08-10T10:48:54.633Z,28.35
2018-08-10T10:50:05.769Z,28.54
2018-08-10T10:51:15.630Z,28.67
2018-08-10T10:52:25.925Z,28.89
2018-08-10T10:53:35.908Z,29.11
2018-08-10T10:54:46.172Z,29.31
2018-08-10T10:55:56.101Z,29.45
2018-08-10T10:57:06.434Z,29.43
2018-08-10T10:58:16.752Z,29.39
2018-08-10T10:59:27.105Z,29.17
2018-08-10T11:00:37.274Z,29.11
2018-08-10T11:01:47.204Z,28.77
2018-08-10T11:02:57.371Z,28.45
2018-08-10T11:04:07.563Z,28.19
2018-08-10T11:05:17.773Z,28.2
2018-08-10T11:06:28.344Z,28.22
2018-08-10T11:07:38.348Z,28.24
2018-08-10T11:08:48.607Z,28.42
2018-08-10T11:09:58.838Z,28.5
2018-08-10T11:11:09.036Z,28.46
2018-08-10T11:12:19.252Z,28.31
2018-08-10T11:13:29.494Z,28.24
2018-08-10T11:14:39.391Z,28.29
2018-08-10T11:15:49.557Z,28.31
2018-08-10T11:16:59.707Z,28.51
2018-08-10T11:18:10.140Z,28.57
2018-08-10T11:19:20.564Z,28.83
2018-08-10T11:20:30.792Z,28.8
2018-08-10T11:21:40.996Z,28.73
2018-08-10T11:22:50.821Z,28.7
2018-08-10T11:24:01.087Z,28.95
2018-08-10T11:25:11.736Z,29.06
2018-08-10T11:26:22.403Z,29.21
2018-08-10T11:27:32.573Z,29.1
2018-08-10T11:28:43.015Z,28.83
2018-08-10T11:29:53.208Z,28.72
2018-08-10T11:31:03.398Z,28.69
2018-08-10T11:32:13.716Z,28.6
2018-08-10T11:33:23.945Z,28.65
2018-08-10T11:34:33.736Z,28.49
2018-08-10T11:35:43.930Z,28.14
2018-08-10T11:36:54.085Z,27.94
2018-08-10T11:38:04.297Z,27.97
2018-08-10T11:39:14.168Z,28.22
2018-08-10T11:40:24.326Z,28.41
2018-08-10T11:41:34.607Z,28.57
2018-08-10T11:42:45.041Z,28.61
2018-08-10T11:43:55.327Z,28.7
2018-08-10T11:45:05.077Z,28.95
2018-08-10T11:46:15.453Z,28.89
2018-08-10T11:47:25.642Z,29.06
2018-08-10T11:48:35.293Z,29.09
2018-08-10T11:49:45.446Z,29.16
2018-08-10T11:50:55.596Z,29.31
2018-08-10T11:52:05.482Z,29.29
2018-08-10T11:53:15.688Z,29.4
2018-08-10T11:54:25.826Z,29.39
2018-08-10T11:55:36.042Z,29.54
2018-08-10T11:56:46.252Z,29.51
2018-08-10T11:57:57.803Z,29.66
2018-08-10T11:59:09.152Z,29.88
2018-08-10T12:00:19.065Z,29.97
2018-08-10T12:01:30.200Z,30.11
2018-08-10T12:02:40.430Z,30.11
2018-08-10T12:03:50.633Z,29.97
2018-08-10T12:05:00.797Z,29.94
2018-08-10T12:06:11.233Z,29.53
2018-08-10T12:07:21.643Z,29.32
2018-08-10T12:08:31.830Z,29.26
2018-08-10T12:09:41.925Z,29.23
2018-08-10T12:10:52.100Z,29.43
2018-08-10T12:12:02.252Z,29.5
2018-08-10T12:13:13.401Z,29.17
2018-08-10T12:14:23.551Z,28.91
2018-08-10T12:15:33.707Z,28.61
2018-08-10T12:16:44.033Z,28.35
2018-08-10T12:17:54.189Z,28.31
2018-08-10T12:19:04.494Z,28.17
2018-08-10T12:20:14.903Z,28.02
2018-08-10T12:21:24.599Z,28.17
2018-08-10T12:22:34.790Z,28.09
2018-08-10T12:23:45.390Z,27.76
2018-08-10T12:24:55.655Z,27.1
2018-08-10T12:26:05.840Z,26.46
2018-08-10T12:27:15.633Z,26.31
2018-08-10T12:28:25.799Z,26.37
2018-08-10T12:29:35.978Z,26.37
2018-08-10T12:30:46.758Z,26.62
2018-08-10T12:31:56.916Z,26.75
2018-08-10T12:33:07.145Z,26.99
2018-08-10T12:34:16.938Z,27.03
2018-08-10T12:35:27.089Z,27.14
2018-08-10T12:36:37.276Z,27.17
2018-08-10T12:37:47.444Z,27.37
2018-08-10T12:38:57.637Z,27.5
2018-08-10T12:40:07.584Z,27.58
2018-08-10T12:41:17.749Z,27.58
2018-08-10T12:42:27.929Z,27.48
2018-08-10T12:43:38.093Z,27.42
2018-08-10T12:44:47.995Z,27.46
2018-08-10T12:45:59.118Z,27.53
2018-08-10T12:47:09.005Z,27.53
2018-08-10T12:48:19.181Z,27.53
2018-08-10T12:49:29.112Z,27.39
2018-08-10T12:50:39.654Z,27.11
2018-08-10T12:51:49.724Z,26.96
2018-08-10T12:52:59.953Z,26.67
2018-08-10T12:54:10.122Z,26.39
2018-08-10T12:55:20.337Z,26.36
2018-08-10T12:56:30.655Z,26.19
2018-08-10T12:57:40.731Z,26.14
2018-08-10T12:58:50.932Z,26.16
2018-08-10T13:00:01.183Z,25.94
2018-08-10T13:01:11.373Z,25.81
2018-08-10T13:02:21.589Z,25.77
2018-08-10T13:03:31.783Z,25.84
2018-08-10T13:04:42.086Z,25.92
2018-08-10T13:05:52.293Z,25.82
2018-08-10T13:07:03.582Z,25.85
2018-08-10T13:08:13.750Z,25.93
2018-08-10T13:09:23.925Z,26.09
2018-08-10T13:10:33.928Z,26.29
2018-08-10T13:11:44.446Z,26.25
2018-08-10T13:12:54.710Z,26.31
2018-08-10T13:14:04.639Z,26.3
2018-08-10T13:15:14.825Z,26.3
2018-08-10T13:16:25.224Z,26.27
2018-08-10T13:17:35.414Z,26.18
2018-08-10T13:18:45.639Z,26.14
2018-08-10T13:19:55.856Z,25.99
2018-08-10T13:21:06.079Z,25.76
2018-08-10T13:22:16.419Z,25.5
2018-08-10T13:23:26.334Z,25.4
2018-08-10T13:24:36.561Z,25.32
2018-08-10T13:25:46.797Z,25.29
2018-08-10T13:26:56.642Z,25.13
2018-08-10T13:28:06.857Z,24.97
2018-08-10T13:29:17.107Z,24.84
2018-08-10T13:30:27.375Z,24.69
2018-08-10T13:31:37.647Z,24.62
2018-08-10T13:32:47.905Z,24.5
2018-08-10T13:33:58.070Z,24.48
2018-08-10T13:35:08.023Z,24.38
2018-08-10T13:36:18.160Z,24.44
2018-08-10T13:37:28.060Z,24.57
2018-08-10T13:38:38.198Z,24.73
2018-08-10T13:39:48.634Z,24.72
2018-08-10T13:40:58.825Z,24.76
2018-08-10T13:42:09.368Z,24.88
2018-08-10T13:43:19.413Z,24.94
2018-08-10T13:44:29.625Z,25.07
2018-08-10T13:45:39.923Z,25.15
2018-08-10T13:46:50.147Z,25.18
2018-08-10T13:48:00.535Z,25.43
2018-08-10T13:49:10.752Z,25.49
2018-08-10T13:50:21.418Z,25.49
2018-08-10T13:51:31.619Z,25.54
2018-08-10T13:52:41.769Z,25.62
2018-08-10T13:53:53.363Z,25.56
2018-08-10T13:55:04.404Z,25.55
2018-08-10T13:56:14.641Z,25.59
2018-08-10T13:57:24.845Z,25.59
2018-08-10T13:58:35.313Z,25.37
2018-08-10T13:59:45.663Z,25.22
2018-08-10T14:00:55.814Z,25.19
2018-08-10T14:02:05.978Z,25.12
2018-08-10T14:03:16.155Z,25.09
2018-08-10T14:04:26.285Z,25.06
2018-08-10T14:05:35.999Z,24.92
2018-08-10T14:06:46.247Z,24.92
2018-08-10T14:07:56.446Z,24.9
2018-08-10T14:09:06.604Z,24.82
2018-08-10T14:10:16.774Z,24.76
2018-08-10T14:11:26.979Z,24.73
2018-08-10T14:12:37.234Z,24.75
2018-08-10T14:13:47.433Z,24.73
2018-08-10T14:14:57.709Z,24.69
2018-08-10T14:16:08.160Z,24.81
2018-08-10T14:17:18.362Z,24.78
2018-08-10T14:18:29.598Z,24.73
2018-08-10T14:19:39.648Z,24.81
2018-08-10T14:20:49.817Z,24.76
2018-08-10T14:22:00.042Z,24.67
2018-08-10T14:23:10.258Z,24.62
2018-08-10T14:24:20.511Z,24.6
2018-08-10T14:25:30.675Z,24.63
2018-08-10T14:26:41.912Z,24.73
2018-08-10T14:27:52.363Z,24.67
2018-08-10T14:29:02.796Z,24.66
2018-08-10T14:30:12.705Z,24.66
2018-08-10T14:31:22.919Z,24.6
2018-08-10T14:32:33.112Z,24.47
2018-08-10T14:33:43.304Z,24.16
2018-08-10T14:34:53.580Z,24.17
2018-08-10T14:36:03.775Z,24
2018-08-10T14:37:13.930Z,24.01
2018-08-10T14:38:24.127Z,23.91
2018-08-10T14:39:34.300Z,23.97
2018-08-10T14:40:44.780Z,23.76
2018-08-10T14:41:55.003Z,23.77
2018-08-10T14:43:05.159Z,23.64
2018-08-10T14:44:15.319Z,23.57
2018-08-10T14:45:25.569Z,23.46
2018-08-10T14:46:36.009Z,23.4
2018-08-10T14:47:47.122Z,23.28
2018-08-10T14:48:57.337Z,23.25
2018-08-10T14:50:07.547Z,23.28
2018-08-10T14:51:17.697Z,23.2
2018-08-10T14:52:27.858Z,23.27
2018-08-10T14:53:38.267Z,23.24
2018-08-10T14:54:48.841Z,23.31
2018-08-10T14:55:59.024Z,23.38
2018-08-10T14:57:09.284Z,23.55
2018-08-10T14:58:19.456Z,23.57
2018-08-10T14:59:29.648Z,23.73
2018-08-10T15:00:39.964Z,23.7
2018-08-10T15:01:50.601Z,23.73
2018-08-10T15:03:00.778Z,23.68
2018-08-10T15:04:10.917Z,23.75
2018-08-10T15:05:21.093Z,23.75
2018-08-10T15:06:31.500Z,23.83
2018-08-10T15:07:41.856Z,23.76